sensor_id;sensor_type;location;lat;lon;timestamp;pressure;altitude;pressure_sealevel;temperature;humidity
30339;BME280;795;49.296;11.348;2023-03-13T00:01:45;95946.41;;;6.69;100.00
30339;BME280;795;49.296;11.348;2023-03-13T00:04:12;95916.44;;;6.49;100.00
30339;BME280;795;49.296;11.348;2023-03-13T00:06:40;95925.19;;;6.59;100.00
30339;BME280;795;49.296;11.348;2023-03-13T00:09:12;95909.16;;;6.51;100.00
30339;BME280;795;49.296;11.348;2023-03-13T00:11:40;95944.38;;;6.63;100.00
30339;BME280;795;49.296;11.348;2023-03-13T00:14:08;95906.25;;;6.45;100.00
30339;BME280;795;49.296;11.348;2023-03-13T00:16:35;95911.88;;;6.42;100.00
30339;BME280;795;49.296;11.348;2023-03-13T00:19:06;95917.75;;;6.45;100.00
30339;BME280;795;49.296;11.348;2023-03-13T00:21:35;95880.47;;;6.28;100.00
30339;BME280;795;49.296;11.348;2023-03-13T00:24:10;95909.81;;;6.53;100.00
30339;BME280;795;49.296;11.348;2023-03-13T00:26:37;95866.34;;;6.35;100.00
30339;BME280;795;49.296;11.348;2023-03-13T00:29:04;95898.38;;;6.61;100.00
30339;BME280;795;49.296;11.348;2023-03-13T00:31:31;95868.97;;;6.53;100.00
30339;BME280;795;49.296;11.348;2023-03-13T00:34:03;95892.31;;;6.51;100.00
30339;BME280;795;49.296;11.348;2023-03-13T00:36:34;95890.63;;;6.50;100.00
30339;BME280;795;49.296;11.348;2023-03-13T00:39:04;95880.84;;;6.33;100.00
30339;BME280;795;49.296;11.348;2023-03-13T00:41:32;95891.19;;;6.36;100.00
30339;BME280;795;49.296;11.348;2023-03-13T00:44:00;95890.03;;;6.38;100.00
30339;BME280;795;49.296;11.348;2023-03-13T00:46:29;95887.53;;;6.37;100.00
30339;BME280;795;49.296;11.348;2023-03-13T00:48:57;95880.00;;;6.32;100.00
30339;BME280;795;49.296;11.348;2023-03-13T00:51:26;95894.03;;;6.34;100.00
30339;BME280;795;49.296;11.348;2023-03-13T00:53:56;95873.41;;;6.19;100.00
30339;BME280;795;49.296;11.348;2023-03-13T00:56:27;95868.75;;;6.21;100.00
30339;BME280;795;49.296;11.348;2023-03-13T00:58:54;95845.41;;;6.15;100.00
30339;BME280;795;49.296;11.348;2023-03-13T01:01:44;95871.09;;;6.24;100.00
30339;BME280;795;49.296;11.348;2023-03-13T01:04:11;95855.44;;;6.21;100.00
30339;BME280;795;49.296;11.348;2023-03-13T01:06:41;95869.13;;;6.26;100.00
30339;BME280;795;49.296;11.348;2023-03-13T01:09:13;95889.06;;;6.39;100.00
30339;BME280;795;49.296;11.348;2023-03-13T01:11:43;95889.94;;;6.48;100.00
30339;BME280;795;49.296;11.348;2023-03-13T01:14:18;95874.09;;;6.46;100.00
30339;BME280;795;49.296;11.348;2023-03-13T01:16:46;95855.09;;;6.49;100.00
30339;BME280;795;49.296;11.348;2023-03-13T01:19:15;95863.81;;;6.51;100.00
30339;BME280;795;49.296;11.348;2023-03-13T01:21:44;95867.53;;;6.66;100.00
30339;BME280;795;49.296;11.348;2023-03-13T01:24:11;95856.50;;;6.61;100.00
30339;BME280;795;49.296;11.348;2023-03-13T01:26:39;95863.38;;;6.64;100.00
30339;BME280;795;49.296;11.348;2023-03-13T01:29:06;95844.69;;;6.64;100.00
30339;BME280;795;49.296;11.348;2023-03-13T01:31:35;95849.53;;;6.68;100.00
30339;BME280;795;49.296;11.348;2023-03-13T01:34:05;95842.69;;;6.58;100.00
30339;BME280;795;49.296;11.348;2023-03-13T01:36:35;95840.84;;;6.58;100.00
30339;BME280;795;49.296;11.348;2023-03-13T01:39:03;95847.00;;;6.59;100.00
30339;BME280;795;49.296;11.348;2023-03-13T01:41:31;95835.28;;;6.52;100.00
30339;BME280;795;49.296;11.348;2023-03-13T01:43:59;95849.34;;;6.62;100.00
30339;BME280;795;49.296;11.348;2023-03-13T01:46:28;95828.06;;;6.36;100.00
30339;BME280;795;49.296;11.348;2023-03-13T01:49:23;95844.00;;;6.28;100.00
30339;BME280;795;49.296;11.348;2023-03-13T01:52:09;95829.78;;;6.20;100.00
30339;BME280;795;49.296;11.348;2023-03-13T01:55:13;95829.25;;;6.16;100.00
30339;BME280;795;49.296;11.348;2023-03-13T01:57:51;95838.59;;;6.20;100.00
30339;BME280;795;49.296;11.348;2023-03-13T02:00:26;95834.94;;;6.21;100.00
30339;BME280;795;49.296;11.348;2023-03-13T02:03:01;95826.09;;;6.21;100.00
30339;BME280;795;49.296;11.348;2023-03-13T02:05:30;95840.72;;;6.34;100.00
30339;BME280;795;49.296;11.348;2023-03-13T02:08:12;95814.59;;;6.20;100.00
30339;BME280;795;49.296;11.348;2023-03-13T02:11:02;95831.88;;;6.34;100.00
30339;BME280;795;49.296;11.348;2023-03-13T02:13:30;95822.50;;;6.30;100.00
30339;BME280;795;49.296;11.348;2023-03-13T02:15:58;95804.38;;;6.33;100.00
30339;BME280;795;49.296;11.348;2023-03-13T02:18:26;95801.16;;;6.30;100.00
30339;BME280;795;49.296;11.348;2023-03-13T02:21:09;95814.25;;;6.41;100.00
30339;BME280;795;49.296;11.348;2023-03-13T02:23:57;95795.91;;;6.38;100.00
30339;BME280;795;49.296;11.348;2023-03-13T02:26:27;95800.56;;;6.36;100.00
30339;BME280;795;49.296;11.348;2023-03-13T02:28:54;95782.88;;;6.35;100.00
30339;BME280;795;49.296;11.348;2023-03-13T02:31:21;95792.25;;;6.39;100.00
30339;BME280;795;49.296;11.348;2023-03-13T02:33:48;95781.53;;;6.31;100.00
30339;BME280;795;49.296;11.348;2023-03-13T02:36:16;95785.34;;;6.28;100.00
30339;BME280;795;49.296;11.348;2023-03-13T02:38:57;95799.78;;;6.43;100.00
30339;BME280;795;49.296;11.348;2023-03-13T02:41:28;95784.88;;;6.33;100.00
30339;BME280;795;49.296;11.348;2023-03-13T02:43:55;95778.38;;;6.35;100.00
30339;BME280;795;49.296;11.348;2023-03-13T02:46:22;95772.88;;;6.29;100.00
30339;BME280;795;49.296;11.348;2023-03-13T02:48:54;95753.41;;;6.11;100.00
30339;BME280;795;49.296;11.348;2023-03-13T02:51:43;95772.66;;;6.22;100.00
30339;BME280;795;49.296;11.348;2023-03-13T02:54:20;95771.28;;;6.18;100.00
30339;BME280;795;49.296;11.348;2023-03-13T02:56:56;95758.84;;;6.01;100.00
30339;BME280;795;49.296;11.348;2023-03-13T02:59:25;95749.16;;;5.92;100.00
30339;BME280;795;49.296;11.348;2023-03-13T03:01:52;95764.06;;;6.03;100.00
30339;BME280;795;49.296;11.348;2023-03-13T03:04:23;95786.13;;;6.21;100.00
30339;BME280;795;49.296;11.348;2023-03-13T03:06:52;95770.69;;;6.24;100.00
30339;BME280;795;49.296;11.348;2023-03-13T03:09:22;95771.53;;;6.25;100.00
30339;BME280;795;49.296;11.348;2023-03-13T03:11:49;95750.16;;;6.17;100.00
30339;BME280;795;49.296;11.348;2023-03-13T03:14:17;95757.28;;;6.16;100.00
30339;BME280;795;49.296;11.348;2023-03-13T03:16:44;95735.06;;;5.99;100.00
30339;BME280;795;49.296;11.348;2023-03-13T03:19:11;95744.56;;;6.02;100.00
30339;BME280;795;49.296;11.348;2023-03-13T03:21:38;95740.22;;;6.01;100.00
30339;BME280;795;49.296;11.348;2023-03-13T03:24:06;95755.41;;;6.09;100.00
30339;BME280;795;49.296;11.348;2023-03-13T03:26:33;95729.91;;;5.98;100.00
30339;BME280;795;49.296;11.348;2023-03-13T03:29:00;95759.28;;;6.14;100.00
30339;BME280;795;49.296;11.348;2023-03-13T03:31:29;95746.91;;;6.05;100.00
30339;BME280;795;49.296;11.348;2023-03-13T03:33:56;95754.38;;;6.01;100.00
30339;BME280;795;49.296;11.348;2023-03-13T03:36:23;95732.97;;;5.85;100.00
30339;BME280;795;49.296;11.348;2023-03-13T03:38:52;95746.84;;;5.97;100.00
30339;BME280;795;49.296;11.348;2023-03-13T03:41:19;95719.06;;;5.74;100.00
30339;BME280;795;49.296;11.348;2023-03-13T03:43:47;95744.84;;;5.91;100.00
30339;BME280;795;49.296;11.348;2023-03-13T03:46:14;95739.66;;;5.89;100.00
30339;BME280;795;49.296;11.348;2023-03-13T03:48:41;95729.59;;;5.83;100.00
30339;BME280;795;49.296;11.348;2023-03-13T03:51:09;95713.03;;;5.72;100.00
30339;BME280;795;49.296;11.348;2023-03-13T03:53:36;95705.09;;;5.80;100.00
30339;BME280;795;49.296;11.348;2023-03-13T03:56:03;95740.44;;;6.08;100.00
30339;BME280;795;49.296;11.348;2023-03-13T03:58:30;95729.91;;;6.06;100.00
30339;BME280;795;49.296;11.348;2023-03-13T04:00:58;95723.34;;;5.92;100.00
30339;BME280;795;49.296;11.348;2023-03-13T04:03:25;95742.75;;;6.03;100.00
30339;BME280;795;49.296;11.348;2023-03-13T04:05:52;95726.69;;;5.94;100.00
30339;BME280;795;49.296;11.348;2023-03-13T04:08:20;95722.22;;;5.95;100.00
30339;BME280;795;49.296;11.348;2023-03-13T04:10:47;95717.38;;;5.98;100.00
30339;BME280;795;49.296;11.348;2023-03-13T04:13:14;95702.03;;;5.92;100.00
30339;BME280;795;49.296;11.348;2023-03-13T04:15:41;95693.03;;;5.93;100.00
30339;BME280;795;49.296;11.348;2023-03-13T04:18:08;95664.31;;;5.79;100.00
30339;BME280;795;49.296;11.348;2023-03-13T04:20:36;95688.72;;;5.92;100.00
30339;BME280;795;49.296;11.348;2023-03-13T04:23:03;95667.38;;;5.84;100.00
30339;BME280;795;49.296;11.348;2023-03-13T04:25:30;95684.44;;;5.99;100.00
30339;BME280;795;49.296;11.348;2023-03-13T04:27:57;95697.63;;;6.09;100.00
30339;BME280;795;49.296;11.348;2023-03-13T04:30:23;95668.63;;;5.98;100.00
30339;BME280;795;49.296;11.348;2023-03-13T04:32:50;95647.09;;;5.91;100.00
30339;BME280;795;49.296;11.348;2023-03-13T04:35:18;95684.72;;;6.22;100.00
30339;BME280;795;49.296;11.348;2023-03-13T04:37:45;95671.53;;;6.13;100.00
30339;BME280;795;49.296;11.348;2023-03-13T04:40:12;95667.50;;;6.09;100.00
30339;BME280;795;49.296;11.348;2023-03-13T04:42:41;95661.53;;;6.15;100.00
30339;BME280;795;49.296;11.348;2023-03-13T04:45:11;95661.53;;;6.15;100.00
30339;BME280;795;49.296;11.348;2023-03-13T04:47:38;95662.88;;;6.19;100.00
30339;BME280;795;49.296;11.348;2023-03-13T04:50:06;95644.19;;;6.11;100.00
30339;BME280;795;49.296;11.348;2023-03-13T04:52:33;95567.72;;;5.69;100.00
30339;BME280;795;49.296;11.348;2023-03-13T04:55:00;95637.38;;;6.16;100.00
30339;BME280;795;49.296;11.348;2023-03-13T04:57:27;95630.22;;;6.17;100.00
30339;BME280;795;49.296;11.348;2023-03-13T04:59:54;95641.56;;;6.19;100.00
30339;BME280;795;49.296;11.348;2023-03-13T05:02:21;95625.88;;;6.08;100.00
30339;BME280;795;49.296;11.348;2023-03-13T05:04:48;95624.72;;;6.10;100.00
30339;BME280;795;49.296;11.348;2023-03-13T05:07:17;95619.22;;;6.12;100.00
30339;BME280;795;49.296;11.348;2023-03-13T05:09:44;95591.19;;;5.99;100.00
30339;BME280;795;49.296;11.348;2023-03-13T05:12:11;95621.03;;;6.11;100.00
30339;BME280;795;49.296;11.348;2023-03-13T05:14:38;95621.69;;;6.13;100.00
30339;BME280;795;49.296;11.348;2023-03-13T05:17:05;95627.38;;;6.18;100.00
30339;BME280;795;49.296;11.348;2023-03-13T05:19:32;95617.88;;;6.16;100.00
30339;BME280;795;49.296;11.348;2023-03-13T05:21:59;95606.06;;;6.18;100.00
30339;BME280;795;49.296;11.348;2023-03-13T05:24:26;95603.44;;;6.26;100.00
30339;BME280;795;49.296;11.348;2023-03-13T05:26:53;95614.63;;;6.38;100.00
30339;BME280;795;49.296;11.348;2023-03-13T05:29:20;95613.66;;;6.39;100.00
30339;BME280;795;49.296;11.348;2023-03-13T05:31:47;95615.28;;;6.40;100.00
30339;BME280;795;49.296;11.348;2023-03-13T05:34:14;95614.31;;;6.41;100.00
30339;BME280;795;49.296;11.348;2023-03-13T05:36:41;95622.97;;;6.43;100.00
30339;BME280;795;49.296;11.348;2023-03-13T05:39:08;95626.97;;;6.47;100.00
30339;BME280;795;49.296;11.348;2023-03-13T05:41:35;95626.16;;;6.46;100.00
30339;BME280;795;49.296;11.348;2023-03-13T05:44:02;95633.66;;;6.51;100.00
30339;BME280;795;49.296;11.348;2023-03-13T05:46:29;95627.31;;;6.52;100.00
30339;BME280;795;49.296;11.348;2023-03-13T05:48:56;95617.47;;;6.44;100.00
30339;BME280;795;49.296;11.348;2023-03-13T05:51:23;95591.47;;;6.38;100.00
30339;BME280;795;49.296;11.348;2023-03-13T05:53:50;95593.31;;;6.46;100.00
30339;BME280;795;49.296;11.348;2023-03-13T05:56:17;95615.34;;;6.56;100.00
30339;BME280;795;49.296;11.348;2023-03-13T05:58:44;95603.84;;;6.55;100.00
30339;BME280;795;49.296;11.348;2023-03-13T06:01:13;95609.38;;;6.70;100.00
30339;BME280;795;49.296;11.348;2023-03-13T06:03:40;95586.50;;;6.59;100.00
30339;BME280;795;49.296;11.348;2023-03-13T06:06:07;95588.19;;;6.60;100.00
30339;BME280;795;49.296;11.348;2023-03-13T06:08:34;95594.69;;;6.58;100.00
30339;BME280;795;49.296;11.348;2023-03-13T06:11:02;95595.88;;;6.63;100.00
30339;BME280;795;49.296;11.348;2023-03-13T06:13:29;95554.66;;;6.42;100.00
30339;BME280;795;49.296;11.348;2023-03-13T06:15:58;95577.19;;;6.55;100.00
30339;BME280;795;49.296;11.348;2023-03-13T06:18:25;95596.19;;;6.68;100.00
30339;BME280;795;49.296;11.348;2023-03-13T06:20:59;95594.34;;;6.69;100.00
30339;BME280;795;49.296;11.348;2023-03-13T06:23:27;95599.69;;;6.69;100.00
30339;BME280;795;49.296;11.348;2023-03-13T06:25:55;95585.66;;;6.59;100.00
30339;BME280;795;49.296;11.348;2023-03-13T06:28:22;95598.34;;;6.65;100.00
30339;BME280;795;49.296;11.348;2023-03-13T06:30:49;95563.00;;;6.47;100.00
30339;BME280;795;49.296;11.348;2023-03-13T06:33:16;95599.69;;;6.69;100.00
30339;BME280;795;49.296;11.348;2023-03-13T06:35:43;95586.84;;;6.64;100.00
30339;BME280;795;49.296;11.348;2023-03-13T06:38:23;95586.72;;;6.66;100.00
30339;BME280;795;49.296;11.348;2023-03-13T06:40:50;95584.69;;;6.68;100.00
30339;BME280;795;49.296;11.348;2023-03-13T06:43:19;95586.69;;;6.74;100.00
30339;BME280;795;49.296;11.348;2023-03-13T06:45:46;95562.84;;;6.64;100.00
30339;BME280;795;49.296;11.348;2023-03-13T06:48:13;95566.03;;;6.68;100.00
30339;BME280;795;49.296;11.348;2023-03-13T06:50:41;95586.19;;;6.87;100.00
30339;BME280;795;49.296;11.348;2023-03-13T06:53:18;95599.88;;;6.92;100.00
30339;BME280;795;49.296;11.348;2023-03-13T06:55:46;95557.38;;;6.82;100.00
30339;BME280;795;49.296;11.348;2023-03-13T06:58:16;95557.34;;;6.74;100.00
30339;BME280;795;49.296;11.348;2023-03-13T07:01:04;95574.22;;;6.83;100.00
30339;BME280;795;49.296;11.348;2023-03-13T07:03:33;95579.03;;;6.87;100.00
30339;BME280;795;49.296;11.348;2023-03-13T07:06:00;95546.38;;;6.85;100.00
30339;BME280;795;49.296;11.348;2023-03-13T07:08:28;95547.34;;;6.76;100.00
30339;BME280;795;49.296;11.348;2023-03-13T07:11:01;95549.34;;;6.74;100.00
30339;BME280;795;49.296;11.348;2023-03-13T07:13:30;95570.38;;;7.09;100.00
30339;BME280;795;49.296;11.348;2023-03-13T07:16:04;95568.84;;;6.99;100.00
30339;BME280;795;49.296;11.348;2023-03-13T07:18:33;95575.00;;;7.07;100.00
30339;BME280;795;49.296;11.348;2023-03-13T07:21:03;95557.16;;;7.08;100.00
30339;BME280;795;49.296;11.348;2023-03-13T07:23:33;95556.84;;;7.11;100.00
30339;BME280;795;49.296;11.348;2023-03-13T07:26:10;95571.69;;;7.21;100.00
30339;BME280;795;49.296;11.348;2023-03-13T07:28:37;95563.69;;;7.13;100.00
30339;BME280;795;49.296;11.348;2023-03-13T07:31:11;95558.16;;;7.15;100.00
30339;BME280;795;49.296;11.348;2023-03-13T07:33:40;95574.00;;;7.24;100.00
30339;BME280;795;49.296;11.348;2023-03-13T07:36:09;95548.84;;;7.19;100.00
30339;BME280;795;49.296;11.348;2023-03-13T07:38:37;95563.00;;;7.27;100.00
30339;BME280;795;49.296;11.348;2023-03-13T07:41:05;95567.47;;;7.43;100.00
30339;BME280;795;49.296;11.348;2023-03-13T07:43:32;95575.78;;;7.56;100.00
30339;BME280;795;49.296;11.348;2023-03-13T07:46:03;95572.22;;;7.72;100.00
30339;BME280;795;49.296;11.348;2023-03-13T07:48:40;95547.84;;;7.75;100.00
30339;BME280;795;49.296;11.348;2023-03-13T07:51:19;95558.91;;;8.02;100.00
30339;BME280;795;49.296;11.348;2023-03-13T07:53:56;95555.72;;;8.07;100.00
30339;BME280;795;49.296;11.348;2023-03-13T07:56:23;95544.00;;;8.16;100.00
30339;BME280;795;49.296;11.348;2023-03-13T07:58:50;95554.41;;;8.42;100.00
30339;BME280;795;49.296;11.348;2023-03-13T08:01:25;95557.50;;;8.53;100.00
30339;BME280;795;49.296;11.348;2023-03-13T08:03:56;95547.44;;;8.55;100.00
30339;BME280;795;49.296;11.348;2023-03-13T08:06:31;95518.97;;;8.62;100.00
30339;BME280;795;49.296;11.348;2023-03-13T08:09:01;95552.88;;;8.93;100.00
30339;BME280;795;49.296;11.348;2023-03-13T08:11:28;95530.47;;;9.08;100.00
30339;BME280;795;49.296;11.348;2023-03-13T08:13:57;95533.66;;;9.26;100.00
30339;BME280;795;49.296;11.348;2023-03-13T08:16:31;95517.88;;;9.31;100.00
30339;BME280;795;49.296;11.348;2023-03-13T08:19:02;95527.69;;;9.54;100.00
30339;BME280;795;49.296;11.348;2023-03-13T08:21:36;95543.66;;;9.76;100.00
30339;BME280;795;49.296;11.348;2023-03-13T08:24:07;95511.47;;;9.91;100.00
30339;BME280;795;49.296;11.348;2023-03-13T08:26:40;95513.34;;;9.90;100.00
30339;BME280;795;49.296;11.348;2023-03-13T08:29:12;95522.19;;;10.06;100.00
30339;BME280;795;49.296;11.348;2023-03-13T08:31:47;95525.63;;;10.29;100.00
30339;BME280;795;49.296;11.348;2023-03-13T08:34:17;95506.63;;;10.30;100.00
30339;BME280;795;49.296;11.348;2023-03-13T08:36:45;95511.06;;;10.38;100.00
30339;BME280;795;49.296;11.348;2023-03-13T08:39:18;95511.38;;;10.49;100.00
30339;BME280;795;49.296;11.348;2023-03-13T08:41:46;95527.69;;;10.69;100.00
30339;BME280;795;49.296;11.348;2023-03-13T08:44:17;95514.22;;;10.62;100.00
30339;BME280;795;49.296;11.348;2023-03-13T08:46:44;95502.31;;;10.72;100.00
30339;BME280;795;49.296;11.348;2023-03-13T08:49:12;95499.00;;;10.70;100.00
30339;BME280;795;49.296;11.348;2023-03-13T08:51:39;95487.44;;;10.48;100.00
30339;BME280;795;49.296;11.348;2023-03-13T08:54:07;95512.13;;;10.58;100.00
30339;BME280;795;49.296;11.348;2023-03-13T08:56:34;95475.66;;;10.49;100.00
30339;BME280;795;49.296;11.348;2023-03-13T08:59:04;95493.75;;;10.61;100.00
30339;BME280;795;49.296;11.348;2023-03-13T09:03:51;95518.13;;;10.81;100.00
30339;BME280;795;49.296;11.348;2023-03-13T09:06:18;95514.78;;;11.00;100.00
30339;BME280;795;49.296;11.348;2023-03-13T09:08:47;95498.41;;;11.16;100.00
30339;BME280;795;49.296;11.348;2023-03-13T09:11:18;95495.06;;;11.14;100.00
30339;BME280;795;49.296;11.348;2023-03-13T09:13:49;95495.00;;;11.08;100.00
30339;BME280;795;49.296;11.348;2023-03-13T09:16:23;95493.06;;;11.23;100.00
30339;BME280;795;49.296;11.348;2023-03-13T09:18:51;95481.75;;;11.27;100.00
30339;BME280;795;49.296;11.348;2023-03-13T09:21:24;95469.06;;;11.21;100.00
30339;BME280;795;49.296;11.348;2023-03-13T09:23:51;95493.41;;;11.41;100.00
30339;BME280;795;49.296;11.348;2023-03-13T09:26:20;95455.59;;;11.43;100.00
30339;BME280;795;49.296;11.348;2023-03-13T09:28:51;95469.50;;;11.87;100.00
30339;BME280;795;49.296;11.348;2023-03-13T09:31:27;95484.41;;;12.30;100.00
30339;BME280;795;49.296;11.348;2023-03-13T09:33:56;95477.66;;;12.74;100.00
30339;BME280;795;49.296;11.348;2023-03-13T09:36:23;95490.38;;;13.25;100.00
30339;BME280;795;49.296;11.348;2023-03-13T09:38:57;95475.69;;;14.05;100.00
30339;BME280;795;49.296;11.348;2023-03-13T09:41:53;95489.75;;;14.71;100.00
30339;BME280;795;49.296;11.348;2023-03-13T09:44:39;95464.66;;;14.64;100.00
30339;BME280;795;49.296;11.348;2023-03-13T09:47:29;95478.66;;;14.86;100.00
30339;BME280;795;49.296;11.348;2023-03-13T09:50:14;95469.59;;;15.29;95.70
30339;BME280;795;49.296;11.348;2023-03-13T09:52:42;95456.28;;;15.53;93.72
30339;BME280;795;49.296;11.348;2023-03-13T09:55:33;95456.81;;;15.86;88.14
30339;BME280;795;49.296;11.348;2023-03-13T09:58:23;95457.44;;;15.39;90.52
30339;BME280;795;49.296;11.348;2023-03-13T10:01:03;95473.34;;;15.96;91.31
30339;BME280;795;49.296;11.348;2023-03-13T10:04:07;95469.81;;;16.32;86.73
30339;BME280;795;49.296;11.348;2023-03-13T10:06:42;95475.66;;;16.65;86.90
30339;BME280;795;49.296;11.348;2023-03-13T10:09:29;95470.66;;;15.96;84.76
30339;BME280;795;49.296;11.348;2023-03-13T10:12:22;95461.88;;;15.58;90.05
30339;BME280;795;49.296;11.348;2023-03-13T10:17:41;95450.28;;;15.51;92.62
30339;BME280;795;49.296;11.348;2023-03-13T10:23:39;95449.00;;;14.73;97.67
30339;BME280;795;49.296;11.348;2023-03-13T10:26:23;95460.00;;;14.40;100.00
30339;BME280;795;49.296;11.348;2023-03-13T10:28:54;95459.41;;;14.25;100.00
30339;BME280;795;49.296;11.348;2023-03-13T10:31:35;95453.59;;;14.28;100.00
30339;BME280;795;49.296;11.348;2023-03-13T10:34:10;95448.19;;;14.28;100.00
30339;BME280;795;49.296;11.348;2023-03-13T10:36:48;95461.59;;;14.03;100.00
30339;BME280;795;49.296;11.348;2023-03-13T10:39:21;95464.47;;;14.08;100.00
30339;BME280;795;49.296;11.348;2023-03-13T10:41:58;95469.72;;;13.96;100.00
30339;BME280;795;49.296;11.348;2023-03-13T10:44:34;95433.28;;;13.61;100.00
30339;BME280;795;49.296;11.348;2023-03-13T10:47:03;95483.22;;;13.83;100.00
30339;BME280;795;49.296;11.348;2023-03-13T10:49:32;95459.41;;;13.67;100.00
30339;BME280;795;49.296;11.348;2023-03-13T10:52:03;95489.50;;;13.64;100.00
30339;BME280;795;49.296;11.348;2023-03-13T10:54:35;95480.81;;;13.56;100.00
30339;BME280;795;49.296;11.348;2023-03-13T10:59:51;95467.13;;;13.51;100.00
30339;BME280;795;49.296;11.348;2023-03-13T11:02:33;95476.03;;;13.45;100.00
30339;BME280;795;49.296;11.348;2023-03-13T11:07:50;95454.69;;;13.30;100.00
30339;BME280;795;49.296;11.348;2023-03-13T11:10:27;95479.97;;;13.42;100.00
30339;BME280;795;49.296;11.348;2023-03-13T11:12:58;95475.84;;;13.33;100.00
30339;BME280;795;49.296;11.348;2023-03-13T11:15:40;95471.91;;;13.29;100.00
30339;BME280;795;49.296;11.348;2023-03-13T11:18:29;95481.25;;;13.33;100.00
30339;BME280;795;49.296;11.348;2023-03-13T11:21:03;95448.06;;;13.26;100.00
30339;BME280;795;49.296;11.348;2023-03-13T11:23:58;95475.66;;;13.41;100.00
30339;BME280;795;49.296;11.348;2023-03-13T11:26:43;95467.34;;;13.43;100.00
30339;BME280;795;49.296;11.348;2023-03-13T11:30:00;95464.88;;;13.41;100.00
30339;BME280;795;49.296;11.348;2023-03-13T11:32:55;95452.16;;;13.61;100.00
30339;BME280;795;49.296;11.348;2023-03-13T11:36:18;95442.06;;;14.08;100.00
30339;BME280;795;49.296;11.348;2023-03-13T11:39:27;95434.25;;;14.37;100.00
30339;BME280;795;49.296;11.348;2023-03-13T11:45:06;95431.75;;;14.42;100.00
30339;BME280;795;49.296;11.348;2023-03-13T11:50:54;95423.63;;;15.29;94.48
30339;BME280;795;49.296;11.348;2023-03-13T11:53:56;95403.63;;;15.55;91.18
30339;BME280;795;49.296;11.348;2023-03-13T11:56:55;95396.66;;;15.66;89.38
30339;BME280;795;49.296;11.348;2023-03-13T12:02:41;95406.09;;;16.11;87.35
30339;BME280;795;49.296;11.348;2023-03-13T12:05:18;95399.72;;;16.06;85.41
30339;BME280;795;49.296;11.348;2023-03-13T12:08:03;95400.00;;;16.16;84.90
30339;BME280;795;49.296;11.348;2023-03-13T12:11:00;95402.97;;;15.78;84.76
30339;BME280;795;49.296;11.348;2023-03-13T12:13:58;95421.50;;;15.32;88.34
30339;BME280;795;49.296;11.348;2023-03-13T12:16:54;95404.31;;;15.01;91.68
30339;BME280;795;49.296;11.348;2023-03-13T12:19:47;95406.78;;;14.78;93.46
30339;BME280;795;49.296;11.348;2023-03-13T12:22:31;95406.19;;;14.76;94.11
30339;BME280;795;49.296;11.348;2023-03-13T12:25:23;95410.38;;;14.72;94.48
30339;BME280;795;49.296;11.348;2023-03-13T12:30:42;95384.03;;;14.68;94.88
30339;BME280;795;49.296;11.348;2023-03-13T12:33:30;95402.81;;;14.81;96.29
30339;BME280;795;49.296;11.348;2023-03-13T12:36:20;95398.50;;;14.73;95.63
30339;BME280;795;49.296;11.348;2023-03-13T12:39:20;95391.16;;;14.80;94.81
30339;BME280;795;49.296;11.348;2023-03-13T12:42:41;95372.84;;;15.07;92.28
30339;BME280;795;49.296;11.348;2023-03-13T12:45:18;95350.84;;;15.28;90.99
30339;BME280;795;49.296;11.348;2023-03-13T12:58:45;95296.22;;;17.21;76.23
30339;BME280;795;49.296;11.348;2023-03-13T13:01:54;95321.06;;;18.16;70.63
30339;BME280;795;49.296;11.348;2023-03-13T13:04:40;95321.22;;;18.37;68.32
30339;BME280;795;49.296;11.348;2023-03-13T13:07:32;95302.50;;;18.69;67.35
30339;BME280;795;49.296;11.348;2023-03-13T13:12:44;95283.81;;;20.04;58.92
30339;BME280;795;49.296;11.348;2023-03-13T13:15:47;95275.44;;;20.96;56.87
30339;BME280;795;49.296;11.348;2023-03-13T13:18:31;95263.81;;;20.74;54.73
30339;BME280;795;49.296;11.348;2023-03-13T13:23:37;95273.47;;;20.55;56.63
30339;BME280;795;49.296;11.348;2023-03-13T13:28:54;95242.53;;;19.69;56.89
30339;BME280;795;49.296;11.348;2023-03-13T13:39:52;95245.25;;;20.71;54.73
30339;BME280;795;49.296;11.348;2023-03-13T13:42:50;95230.31;;;20.46;54.20
30339;BME280;795;49.296;11.348;2023-03-13T13:45:36;95226.78;;;19.98;54.29
30339;BME280;795;49.296;11.348;2023-03-13T13:48:38;95225.44;;;19.52;56.71
30339;BME280;795;49.296;11.348;2023-03-13T14:02:25;95196.69;;;20.68;55.09
30339;BME280;795;49.296;11.348;2023-03-13T14:05:27;95189.53;;;21.40;52.72
30339;BME280;795;49.296;11.348;2023-03-13T14:08:39;95157.03;;;21.44;51.31
30339;BME280;795;49.296;11.348;2023-03-13T14:11:29;95180.00;;;23.05;48.49
30339;BME280;795;49.296;11.348;2023-03-13T14:14:20;95156.47;;;22.94;47.46
30339;BME280;795;49.296;11.348;2023-03-13T14:16:56;95169.56;;;22.02;49.61
30339;BME280;795;49.296;11.348;2023-03-13T14:19:43;95163.00;;;21.31;50.87
30339;BME280;795;49.296;11.348;2023-03-13T14:22:11;95145.81;;;20.88;52.43
30339;BME280;795;49.296;11.348;2023-03-13T14:24:41;95138.84;;;20.29;53.54
30339;BME280;795;49.296;11.348;2023-03-13T14:27:18;95140.19;;;20.26;53.63
30339;BME280;795;49.296;11.348;2023-03-13T14:30:07;95141.47;;;19.65;54.56
30339;BME280;795;49.296;11.348;2023-03-13T14:32:36;95126.59;;;19.30;56.04
30339;BME280;795;49.296;11.348;2023-03-13T14:35:07;95130.88;;;19.26;57.49
30339;BME280;795;49.296;11.348;2023-03-13T14:37:46;95105.59;;;19.25;57.25
30339;BME280;795;49.296;11.348;2023-03-13T14:40:28;95115.94;;;19.45;56.89
30339;BME280;795;49.296;11.348;2023-03-13T14:43:00;95080.34;;;19.30;57.08
30339;BME280;795;49.296;11.348;2023-03-13T14:45:35;95107.81;;;19.50;56.99
30339;BME280;795;49.296;11.348;2023-03-13T14:50:53;95081.00;;;19.63;56.99
30339;BME280;795;49.296;11.348;2023-03-13T14:54:01;95070.88;;;19.59;57.11